sensor_id;sensor_type;location;lat;lon;timestamp;P1;P2;P0
26185;PMS7003;20067;48.764;9.176;2022-11-15T00:01:48;19.25;14.00;8.00
26185;PMS7003;20067;48.764;9.176;2022-11-15T00:04:13;15.50;15.50;9.00
26185;PMS7003;20067;48.764;9.176;2022-11-15T00:06:39;18.25;16.00;7.25
26185;PMS7003;20067;48.764;9.176;2022-11-15T00:09:04;15.50;14.50;6.25
26185;PMS7003;20067;48.764;9.176;2022-11-15T00:11:30;13.50;13.50;6.00
26185;PMS7003;20067;48.764;9.176;2022-11-15T00:13:57;15.75;14.00;7.25
26185;PMS7003;20067;48.764;9.176;2022-11-15T00:16:23;15.00;15.00;6.00
26185;PMS7003;20067;48.764;9.176;2022-11-15T00:18:49;18.25;17.00;7.50
26185;PMS7003;20067;48.764;9.176;2022-11-15T00:21:15;17.75;14.75;6.75
26185;PMS7003;20067;48.764;9.176;2022-11-15T00:23:42;15.00;12.75;6.00
26185;PMS7003;20067;48.764;9.176;2022-11-15T00:26:12;16.00;14.50;5.50
26185;PMS7003;20067;48.764;9.176;2022-11-15T00:28:38;18.50;18.50;7.00
26185;PMS7003;20067;48.764;9.176;2022-11-15T00:31:06;19.50;18.50;7.25
26185;PMS7003;20067;48.764;9.176;2022-11-15T00:33:34;19.00;17.50;9.00
26185;PMS7003;20067;48.764;9.176;2022-11-15T00:36:04;17.75;17.75;7.00
26185;PMS7003;20067;48.764;9.176;2022-11-15T00:38:32;16.25;15.50;4.00
26185;PMS7003;20067;48.764;9.176;2022-11-15T00:40:58;16.00;14.00;6.00
26185;PMS7003;20067;48.764;9.176;2022-11-15T00:43:24;20.50;15.00;6.50
26185;PMS7003;20067;48.764;9.176;2022-11-15T00:45:50;15.00;15.00;6.00
26185;PMS7003;20067;48.764;9.176;2022-11-15T00:48:16;12.25;11.25;4.50
26185;PMS7003;20067;48.764;9.176;2022-11-15T00:50:41;23.00;17.00;7.75
26185;PMS7003;20067;48.764;9.176;2022-11-15T00:53:07;12.00;12.00;6.00
26185;PMS7003;20067;48.764;9.176;2022-11-15T00:55:32;15.00;15.00;6.75
26185;PMS7003;20067;48.764;9.176;2022-11-15T00:57:58;14.00;14.00;5.50
26185;PMS7003;20067;48.764;9.176;2022-11-15T01:00:23;13.00;13.00;6.00
26185;PMS7003;20067;48.764;9.176;2022-11-15T01:02:49;17.00;14.00;4.00
26185;PMS7003;20067;48.764;9.176;2022-11-15T01:05:15;13.50;13.50;6.25
26185;PMS7003;20067;48.764;9.176;2022-11-15T01:07:40;11.50;11.50;4.00
26185;PMS7003;20067;48.764;9.176;2022-11-15T01:10:06;15.50;15.50;6.75
26185;PMS7003;20067;48.764;9.176;2022-11-15T01:12:32;14.50;14.50;6.00
26185;PMS7003;20067;48.764;9.176;2022-11-15T01:14:58;16.75;12.75;5.00
26185;PMS7003;20067;48.764;9.176;2022-11-15T01:17:24;13.00;11.00;4.00
26185;PMS7003;20067;48.764;9.176;2022-11-15T01:19:49;9.00;9.00;3.00
26185;PMS7003;20067;48.764;9.176;2022-11-15T01:22:15;14.00;12.00;6.00
26185;PMS7003;20067;48.764;9.176;2022-11-15T01:24:41;11.75;11.75;4.00
26185;PMS7003;20067;48.764;9.176;2022-11-15T01:27:07;12.75;11.00;4.00
26185;PMS7003;20067;48.764;9.176;2022-11-15T01:29:33;14.00;14.00;6.00
26185;PMS7003;20067;48.764;9.176;2022-11-15T01:31:58;11.00;11.00;5.00
26185;PMS7003;20067;48.764;9.176;2022-11-15T01:34:24;12.75;11.50;4.50
26185;PMS7003;20067;48.764;9.176;2022-11-15T01:36:49;16.50;14.00;4.00
26185;PMS7003;20067;48.764;9.176;2022-11-15T01:39:15;15.75;14.00;5.00
26185;PMS7003;20067;48.764;9.176;2022-11-15T01:41:41;13.00;13.00;4.50
26185;PMS7003;20067;48.764;9.176;2022-11-15T01:47:16;13.75;11.75;5.00
26185;PMS7003;20067;48.764;9.176;2022-11-15T01:52:27;15.25;12.00;6.00
26185;PMS7003;20067;48.764;9.176;2022-11-15T01:55:02;13.75;11.75;4.00
26185;PMS7003;20067;48.764;9.176;2022-11-15T01:57:39;20.75;14.00;6.00
26185;PMS7003;20067;48.764;9.176;2022-11-15T02:00:09;11.50;11.50;4.00
26185;PMS7003;20067;48.764;9.176;2022-11-15T02:02:36;14.50;12.50;4.00
26185;PMS7003;20067;48.764;9.176;2022-11-15T02:05:02;12.00;12.00;4.00
26185;PMS7003;20067;48.764;9.176;2022-11-15T02:07:28;17.00;16.00;4.00
26185;PMS7003;20067;48.764;9.176;2022-11-15T02:09:57;14.00;13.50;4.50
26185;PMS7003;20067;48.764;9.176;2022-11-15T02:12:27;13.75;13.25;6.00
26185;PMS7003;20067;48.764;9.176;2022-11-15T02:14:53;11.00;11.00;4.00
26185;PMS7003;20067;48.764;9.176;2022-11-15T02:18:05;13.75;13.00;4.00
26185;PMS7003;20067;48.764;9.176;2022-11-15T02:29:01;17.50;16.00;5.75
26185;PMS7003;20067;48.764;9.176;2022-11-15T02:34:35;13.75;13.75;4.50
26185;PMS7003;20067;48.764;9.176;2022-11-15T02:42:36;11.75;10.25;4.00
26185;PMS7003;20067;48.764;9.176;2022-11-15T02:45:30;13.75;11.00;4.00
26185;PMS7003;20067;48.764;9.176;2022-11-15T02:48:00;11.50;11.50;3.50
26185;PMS7003;20067;48.764;9.176;2022-11-15T02:50:28;11.00;9.50;3.00
26185;PMS7003;20067;48.764;9.176;2022-11-15T02:52:55;11.75;11.00;3.25
26185;PMS7003;20067;48.764;9.176;2022-11-15T02:55:25;13.00;11.00;4.00
26185;PMS7003;20067;48.764;9.176;2022-11-15T03:00:37;16.00;15.00;5.00
26185;PMS7003;20067;48.764;9.176;2022-11-15T03:08:31;13.00;11.25;3.00
26185;PMS7003;20067;48.764;9.176;2022-11-15T03:11:09;13.00;13.00;5.00
26185;PMS7003;20067;48.764;9.176;2022-11-15T03:13:44;13.00;13.00;4.00
26185;PMS7003;20067;48.764;9.176;2022-11-15T03:16:20;14.75;14.75;4.75
26185;PMS7003;20067;48.764;9.176;2022-11-15T03:21:46;13.25;12.50;4.00
26185;PMS7003;20067;48.764;9.176;2022-11-15T03:24:14;13.00;11.50;3.00
26185;PMS7003;20067;48.764;9.176;2022-11-15T03:26:42;13.00;12.00;4.00
26185;PMS7003;20067;48.764;9.176;2022-11-15T03:29:15;14.75;13.00;4.00
26185;PMS7003;20067;48.764;9.176;2022-11-15T03:31:46;11.75;11.75;5.25
26185;PMS7003;20067;48.764;9.176;2022-11-15T03:36:50;18.50;16.50;5.75
26185;PMS7003;20067;48.764;9.176;2022-11-15T03:39:17;11.50;10.50;3.00
26185;PMS7003;20067;48.764;9.176;2022-11-15T03:41:47;13.00;13.00;4.75
26185;PMS7003;20067;48.764;9.176;2022-11-15T03:47:23;13.25;10.50;3.00
26185;PMS7003;20067;48.764;9.176;2022-11-15T03:49:59;13.25;13.25;4.75
26185;PMS7003;20067;48.764;9.176;2022-11-15T03:52:33;16.75;15.50;5.75
26185;PMS7003;20067;48.764;9.176;2022-11-15T03:55:00;11.00;11.00;4.00
26185;PMS7003;20067;48.764;9.176;2022-11-15T03:57:28;14.25;12.25;3.25
26185;PMS7003;20067;48.764;9.176;2022-11-15T03:59:53;13.50;13.00;5.00
26185;PMS7003;20067;48.764;9.176;2022-11-15T04:02:19;14.75;14.75;6.00
26185;PMS7003;20067;48.764;9.176;2022-11-15T04:04:45;18.00;18.00;6.00
26185;PMS7003;20067;48.764;9.176;2022-11-15T04:07:10;21.50;21.50;5.75
26185;PMS7003;20067;48.764;9.176;2022-11-15T04:09:36;21.00;21.00;5.25
26185;PMS7003;20067;48.764;9.176;2022-11-15T04:12:20;19.00;19.00;6.00
26185;PMS7003;20067;48.764;9.176;2022-11-15T04:14:55;20.25;20.00;8.00
26185;PMS7003;20067;48.764;9.176;2022-11-15T04:17:36;17.75;16.75;7.00
26185;PMS7003;20067;48.764;9.176;2022-11-15T04:23:08;16.50;15.00;8.00
26185;PMS7003;20067;48.764;9.176;2022-11-15T04:25:55;16.50;16.00;8.00
26185;PMS7003;20067;48.764;9.176;2022-11-15T04:28:23;16.50;14.25;7.50
26185;PMS7003;20067;48.764;9.176;2022-11-15T04:30:49;14.00;14.00;6.00
26185;PMS7003;20067;48.764;9.176;2022-11-15T04:33:14;13.75;13.25;6.00
26185;PMS7003;20067;48.764;9.176;2022-11-15T04:35:40;13.75;13.75;5.50
26185;PMS7003;20067;48.764;9.176;2022-11-15T04:38:07;14.25;14.25;6.00
26185;PMS7003;20067;48.764;9.176;2022-11-15T04:40:34;20.25;18.00;6.00
26185;PMS7003;20067;48.764;9.176;2022-11-15T04:43:01;17.50;14.50;6.50
26185;PMS7003;20067;48.764;9.176;2022-11-15T04:45:26;13.00;13.00;5.75
26185;PMS7003;20067;48.764;9.176;2022-11-15T04:47:52;16.75;14.00;5.00
26185;PMS7003;20067;48.764;9.176;2022-11-15T04:50:18;20.25;17.00;5.50
26185;PMS7003;20067;48.764;9.176;2022-11-15T04:52:49;13.00;13.00;3.00
26185;PMS7003;20067;48.764;9.176;2022-11-15T04:55:16;16.50;15.75;5.00
26185;PMS7003;20067;48.764;9.176;2022-11-15T04:57:42;16.00;14.50;5.00
26185;PMS7003;20067;48.764;9.176;2022-11-15T05:00:09;14.75;13.00;4.25
26185;PMS7003;20067;48.764;9.176;2022-11-15T05:02:37;17.50;14.75;5.25
26185;PMS7003;20067;48.764;9.176;2022-11-15T05:05:21;16.00;13.75;5.00
26185;PMS7003;20067;48.764;9.176;2022-11-15T05:07:48;13.25;13.00;4.00
26185;PMS7003;20067;48.764;9.176;2022-11-15T05:10:14;13.00;12.50;4.00
26185;PMS7003;20067;48.764;9.176;2022-11-15T05:12:39;13.75;13.00;4.00
26185;PMS7003;20067;48.764;9.176;2022-11-15T05:15:05;15.00;13.75;4.50
26185;PMS7003;20067;48.764;9.176;2022-11-15T05:17:31;16.00;16.00;5.75
26185;PMS7003;20067;48.764;9.176;2022-11-15T05:19:57;16.25;14.00;5.75
26185;PMS7003;20067;48.764;9.176;2022-11-15T05:22:22;12.00;12.00;4.75
26185;PMS7003;20067;48.764;9.176;2022-11-15T05:24:48;16.50;13.50;4.00
26185;PMS7003;20067;48.764;9.176;2022-11-15T05:27:13;12.00;11.00;5.50
26185;PMS7003;20067;48.764;9.176;2022-11-15T05:29:39;14.25;14.00;6.00
26185;PMS7003;20067;48.764;9.176;2022-11-15T05:32:05;16.00;16.00;8.00
26185;PMS7003;20067;48.764;9.176;2022-11-15T05:34:33;15.25;13.00;3.25
26185;PMS7003;20067;48.764;9.176;2022-11-15T05:36:58;15.00;13.25;4.00
26185;PMS7003;20067;48.764;9.176;2022-11-15T05:39:24;13.25;12.50;4.00
26185;PMS7003;20067;48.764;9.176;2022-11-15T05:41:54;11.00;11.00;4.00
26185;PMS7003;20067;48.764;9.176;2022-11-15T05:44:26;11.00;10.00;4.00
26185;PMS7003;20067;48.764;9.176;2022-11-15T05:46:52;14.50;13.00;4.00
26185;PMS7003;20067;48.764;9.176;2022-11-15T05:49:23;13.50;12.00;4.25
26185;PMS7003;20067;48.764;9.176;2022-11-15T05:51:52;13.50;11.00;3.25
26185;PMS7003;20067;48.764;9.176;2022-11-15T05:54:19;17.50;16.00;6.00
26185;PMS7003;20067;48.764;9.176;2022-11-15T05:56:46;12.00;11.00;4.00
26185;PMS7003;20067;48.764;9.176;2022-11-15T05:59:13;11.50;11.50;4.00
26185;PMS7003;20067;48.764;9.176;2022-11-15T06:01:39;13.00;11.50;3.00
26185;PMS7003;20067;48.764;9.176;2022-11-15T06:04:05;17.00;15.00;4.25
26185;PMS7003;20067;48.764;9.176;2022-11-15T06:06:31;11.25;11.00;3.25
26185;PMS7003;20067;48.764;9.176;2022-11-15T06:08:56;13.00;13.00;6.00
26185;PMS7003;20067;48.764;9.176;2022-11-15T06:11:22;13.50;12.25;4.00
26185;PMS7003;20067;48.764;9.176;2022-11-15T06:13:47;13.00;9.50;3.75
26185;PMS7003;20067;48.764;9.176;2022-11-15T06:16:13;13.50;13.25;5.50
26185;PMS7003;20067;48.764;9.176;2022-11-15T06:18:38;13.25;11.25;5.25
26185;PMS7003;20067;48.764;9.176;2022-11-15T06:21:04;14.00;13.00;4.00
26185;PMS7003;20067;48.764;9.176;2022-11-15T06:23:34;14.00;13.00;4.50
26185;PMS7003;20067;48.764;9.176;2022-11-15T06:26:00;13.25;12.25;4.00
26185;PMS7003;20067;48.764;9.176;2022-11-15T06:28:28;16.00;15.50;6.00
26185;PMS7003;20067;48.764;9.176;2022-11-15T06:30:54;13.25;12.75;4.00
26185;PMS7003;20067;48.764;9.176;2022-11-15T06:33:20;19.00;18.25;8.00
26185;PMS7003;20067;48.764;9.176;2022-11-15T06:35:45;14.00;13.50;5.00
26185;PMS7003;20067;48.764;9.176;2022-11-15T06:38:11;15.00;14.50;6.00
26185;PMS7003;20067;48.764;9.176;2022-11-15T06:40:37;16.75;14.25;6.00
26185;PMS7003;20067;48.764;9.176;2022-11-15T06:43:03;15.00;14.00;4.50
26185;PMS7003;20067;48.764;9.176;2022-11-15T06:45:30;12.00;12.00;4.00
26185;PMS7003;20067;48.764;9.176;2022-11-15T06:47:56;40.25;40.25;26.00
26185;PMS7003;20067;48.764;9.176;2022-11-15T06:50:22;31.50;31.50;21.50
26185;PMS7003;20067;48.764;9.176;2022-11-15T06:52:48;22.00;17.50;9.00
26185;PMS7003;20067;48.764;9.176;2022-11-15T06:55:14;18.50;16.00;6.00
26185;PMS7003;20067;48.764;9.176;2022-11-15T06:57:49;15.75;15.25;5.00
26185;PMS7003;20067;48.764;9.176;2022-11-15T07:00:17;15.75;15.75;5.50
26185;PMS7003;20067;48.764;9.176;2022-11-15T07:02:44;16.50;16.50;5.00
26185;PMS7003;20067;48.764;9.176;2022-11-15T07:05:10;16.75;16.75;5.25
26185;PMS7003;20067;48.764;9.176;2022-11-15T07:07:36;19.75;19.75;8.00
26185;PMS7003;20067;48.764;9.176;2022-11-15T07:10:02;18.75;18.75;6.00
26185;PMS7003;20067;48.764;9.176;2022-11-15T07:12:28;19.00;18.25;6.00
26185;PMS7003;20067;48.764;9.176;2022-11-15T07:14:54;21.25;21.25;7.50
26185;PMS7003;20067;48.764;9.176;2022-11-15T07:17:19;21.25;19.50;6.50
26185;PMS7003;20067;48.764;9.176;2022-11-15T07:19:45;19.25;18.50;8.00
26185;PMS7003;20067;48.764;9.176;2022-11-15T07:22:10;17.00;16.25;8.00
26185;PMS7003;20067;48.764;9.176;2022-11-15T07:24:36;15.00;14.50;6.00
26185;PMS7003;20067;48.764;9.176;2022-11-15T07:27:01;16.50;16.00;4.75
26185;PMS7003;20067;48.764;9.176;2022-11-15T07:29:27;18.00;18.00;7.00
26185;PMS7003;20067;48.764;9.176;2022-11-15T07:31:53;17.00;14.25;4.25
26185;PMS7003;20067;48.764;9.176;2022-11-15T07:34:18;17.75;15.50;6.50
26185;PMS7003;20067;48.764;9.176;2022-11-15T07:36:44;16.25;15.75;6.00
26185;PMS7003;20067;48.764;9.176;2022-11-15T07:39:10;16.00;16.00;6.50
26185;PMS7003;20067;48.764;9.176;2022-11-15T07:41:37;20.00;20.00;8.50
26185;PMS7003;20067;48.764;9.176;2022-11-15T07:44:03;16.00;15.50;6.50
26185;PMS7003;20067;48.764;9.176;2022-11-15T07:46:29;15.00;15.00;8.00
26185;PMS7003;20067;48.764;9.176;2022-11-15T07:48:55;18.00;17.00;8.25
26185;PMS7003;20067;48.764;9.176;2022-11-15T07:51:21;18.00;17.00;7.00
26185;PMS7003;20067;48.764;9.176;2022-11-15T07:53:46;19.75;17.50;9.00
26185;PMS7003;20067;48.764;9.176;2022-11-15T07:56:12;17.25;16.75;8.00
26185;PMS7003;20067;48.764;9.176;2022-11-15T07:58:41;13.75;13.75;7.00
26185;PMS7003;20067;48.764;9.176;2022-11-15T08:01:07;21.75;18.00;9.50
26185;PMS7003;20067;48.764;9.176;2022-11-15T08:03:34;19.50;19.00;9.00
26185;PMS7003;20067;48.764;9.176;2022-11-15T08:06:00;20.75;20.25;9.00
26185;PMS7003;20067;48.764;9.176;2022-11-15T08:08:26;20.25;18.00;10.00
26185;PMS7003;20067;48.764;9.176;2022-11-15T08:10:52;24.00;18.00;9.25
26185;PMS7003;20067;48.764;9.176;2022-11-15T08:13:17;19.00;18.00;10.00
26185;PMS7003;20067;48.764;9.176;2022-11-15T08:15:43;26.50;23.00;12.00
26185;PMS7003;20067;48.764;9.176;2022-11-15T08:18:10;23.75;19.00;12.00
26185;PMS7003;20067;48.764;9.176;2022-11-15T08:20:40;22.75;18.00;10.50
26185;PMS7003;20067;48.764;9.176;2022-11-15T08:23:06;19.75;17.75;12.25
26185;PMS7003;20067;48.764;9.176;2022-11-15T08:25:35;17.75;15.50;9.50
26185;PMS7003;20067;48.764;9.176;2022-11-15T08:28:01;15.50;15.00;9.50
26185;PMS7003;20067;48.764;9.176;2022-11-15T08:30:29;19.00;17.00;9.75
26185;PMS7003;20067;48.764;9.176;2022-11-15T08:32:56;22.25;17.50;11.25
26185;PMS7003;20067;48.764;9.176;2022-11-15T08:35:23;21.00;18.25;11.00
26185;PMS7003;20067;48.764;9.176;2022-11-15T08:37:49;18.00;18.00;10.00
26185;PMS7003;20067;48.764;9.176;2022-11-15T08:40:15;14.50;13.25;7.75
26185;PMS7003;20067;48.764;9.176;2022-11-15T08:42:41;16.25;16.00;10.00
26185;PMS7003;20067;48.764;9.176;2022-11-15T08:45:07;14.00;13.50;7.25
26185;PMS7003;20067;48.764;9.176;2022-11-15T08:47:33;13.50;13.50;7.50
26185;PMS7003;20067;48.764;9.176;2022-11-15T08:49:59;15.25;14.75;10.00
26185;PMS7003;20067;48.764;9.176;2022-11-15T08:52:25;15.75;14.00;8.25
26185;PMS7003;20067;48.764;9.176;2022-11-15T08:54:51;15.25;15.25;8.50
26185;PMS7003;20067;48.764;9.176;2022-11-15T08:57:16;13.00;13.00;6.00
26185;PMS7003;20067;48.764;9.176;2022-11-15T08:59:42;12.25;12.00;8.00
26185;PMS7003;20067;48.764;9.176;2022-11-15T09:02:12;14.00;14.00;9.00
26185;PMS7003;20067;48.764;9.176;2022-11-15T09:04:40;15.75;13.50;8.50
26185;PMS7003;20067;48.764;9.176;2022-11-15T09:07:06;16.50;13.50;7.00
26185;PMS7003;20067;48.764;9.176;2022-11-15T09:09:32;17.50;15.00;9.00
26185;PMS7003;20067;48.764;9.176;2022-11-15T09:11:57;15.50;15.00;9.00
26185;PMS7003;20067;48.764;9.176;2022-11-15T09:14:23;16.00;14.50;9.75
26185;PMS7003;20067;48.764;9.176;2022-11-15T09:16:49;17.75;16.75;11.00
26185;PMS7003;20067;48.764;9.176;2022-11-15T09:19:14;20.00;16.00;10.25
26185;PMS7003;20067;48.764;9.176;2022-11-15T09:21:40;13.00;13.00;8.00
26185;PMS7003;20067;48.764;9.176;2022-11-15T09:24:06;15.50;15.50;9.50
26185;PMS7003;20067;48.764;9.176;2022-11-15T09:26:31;16.00;13.75;8.00
26185;PMS7003;20067;48.764;9.176;2022-11-15T09:28:57;16.00;15.50;10.00
26185;PMS7003;20067;48.764;9.176;2022-11-15T09:31:22;15.50;14.00;9.25
26185;PMS7003;20067;48.764;9.176;2022-11-15T09:33:49;16.25;15.25;9.50
26185;PMS7003;20067;48.764;9.176;2022-11-15T09:36:15;15.75;15.00;8.50
26185;PMS7003;20067;48.764;9.176;2022-11-15T09:38:41;14.80;14.60;8.80
26185;PMS7003;20067;48.764;9.176;2022-11-15T09:49:20;17.50;15.25;11.00
26185;PMS7003;20067;48.764;9.176;2022-11-15T09:51:47;16.25;14.00;8.00
26185;PMS7003;20067;48.764;9.176;2022-11-15T09:56:56;19.75;14.75;9.00
26185;PMS7003;20067;48.764;9.176;2022-11-15T10:04:43;10.00;9.20;4.80
26185;PMS7003;20067;48.764;9.176;2022-11-15T10:07:14;9.25;9.00;4.50
26185;PMS7003;20067;48.764;9.176;2022-11-15T10:12:20;9.00;9.00;4.00
26185;PMS7003;20067;48.764;9.176;2022-11-15T10:14:45;8.75;8.75;4.00
26185;PMS7003;20067;48.764;9.176;2022-11-15T10:20:05;11.60;10.60;4.20
26185;PMS7003;20067;48.764;9.176;2022-11-15T10:22:46;11.40;10.00;5.00
26185;PMS7003;20067;48.764;9.176;2022-11-15T10:25:22;9.00;9.00;3.20
26185;PMS7003;20067;48.764;9.176;2022-11-15T10:30:41;10.50;10.00;4.00
26185;PMS7003;20067;48.764;9.176;2022-11-15T10:35:42;9.75;9.75;4.50
26185;PMS7003;20067;48.764;9.176;2022-11-15T10:38:09;11.50;11.50;4.25
26185;PMS7003;20067;48.764;9.176;2022-11-15T10:40:36;12.75;12.50;5.00
26185;PMS7003;20067;48.764;9.176;2022-11-15T10:43:04;12.00;11.00;4.75
26185;PMS7003;20067;48.764;9.176;2022-11-15T10:45:38;11.50;11.25;4.00
26185;PMS7003;20067;48.764;9.176;2022-11-15T10:50:39;11.80;10.80;4.00
26185;PMS7003;20067;48.764;9.176;2022-11-15T10:53:15;15.75;12.75;4.50
26185;PMS7003;20067;48.764;9.176;2022-11-15T10:56:02;13.25;12.25;4.75
26185;PMS7003;20067;48.764;9.176;2022-11-15T10:58:39;12.00;12.00;5.00
26185;PMS7003;20067;48.764;9.176;2022-11-15T11:03:38;11.80;11.80;4.80
26185;PMS7003;20067;48.764;9.176;2022-11-15T11:06:06;10.60;9.00;4.00
26185;PMS7003;20067;48.764;9.176;2022-11-15T11:08:34;16.00;12.60;4.00
26185;PMS7003;20067;48.764;9.176;2022-11-15T11:11:01;16.75;13.00;6.00
26185;PMS7003;20067;48.764;9.176;2022-11-15T11:13:38;14.00;14.00;2.50
26185;PMS7003;20067;48.764;9.176;2022-11-15T11:21:15;15.25;13.75;7.00
26185;PMS7003;20067;48.764;9.176;2022-11-15T11:23:57;17.25;16.00;8.00
26185;PMS7003;20067;48.764;9.176;2022-11-15T11:26:32;16.50;15.75;7.25
26185;PMS7003;20067;48.764;9.176;2022-11-15T11:31:29;15.00;14.50;5.00
26185;PMS7003;20067;48.764;9.176;2022-11-15T11:34:43;16.00;13.50;5.00
26185;PMS7003;20067;48.764;9.176;2022-11-15T11:37:34;18.25;17.50;5.50
26185;PMS7003;20067;48.764;9.176;2022-11-15T11:53:47;13.50;13.50;5.00
26185;PMS7003;20067;48.764;9.176;2022-11-15T11:56:24;16.00;14.25;5.50
26185;PMS7003;20067;48.764;9.176;2022-11-15T11:58:54;12.75;12.00;4.25
26185;PMS7003;20067;48.764;9.176;2022-11-15T12:01:26;12.00;12.00;7.00
26185;PMS7003;20067;48.764;9.176;2022-11-15T12:03:59;12.25;11.00;5.00
26185;PMS7003;20067;48.764;9.176;2022-11-15T12:14:40;9.00;8.75;5.00
26185;PMS7003;20067;48.764;9.176;2022-11-15T12:17:29;9.75;9.00;5.00
26185;PMS7003;20067;48.764;9.176;2022-11-15T12:20:01;9.25;8.00;4.25
26185;PMS7003;20067;48.764;9.176;2022-11-15T12:22:47;11.00;9.00;4.75
26185;PMS7003;20067;48.764;9.176;2022-11-15T12:25:40;8.00;8.00;4.20
26185;PMS7003;20067;48.764;9.176;2022-11-15T12:31:01;9.00;9.00;5.00
26185;PMS7003;20067;48.764;9.176;2022-11-15T12:33:42;9.50;9.50;5.00
26185;PMS7003;20067;48.764;9.176;2022-11-15T12:39:05;10.75;10.75;4.25
26185;PMS7003;20067;48.764;9.176;2022-11-15T12:41:37;8.25;8.25;4.50
26185;PMS7003;20067;48.764;9.176;2022-11-15T12:59:50;14.00;12.00;5.75
26185;PMS7003;20067;48.764;9.176;2022-11-15T13:04:55;11.25;11.00;5.50
26185;PMS7003;20067;48.764;9.176;2022-11-15T13:17:43;16.00;15.00;8.25
26185;PMS7003;20067;48.764;9.176;2022-11-15T13:30:51;11.75;11.75;7.00
26185;PMS7003;20067;48.764;9.176;2022-11-15T13:33:20;16.25;15.25;7.75
26185;PMS7003;20067;48.764;9.176;2022-11-15T13:35:50;13.25;11.00;5.00
26185;PMS7003;20067;48.764;9.176;2022-11-15T13:38:29;15.25;14.25;6.50
26185;PMS7003;20067;48.764;9.176;2022-11-15T13:40:57;10.50;10.50;4.00
26185;PMS7003;20067;48.764;9.176;2022-11-15T13:46:04;11.50;10.75;4.00
26185;PMS7003;20067;48.764;9.176;2022-11-15T13:48:33;11.50;11.50;4.00
26185;PMS7003;20067;48.764;9.176;2022-11-15T13:50:59;11.00;11.00;4.00
26185;PMS7003;20067;48.764;9.176;2022-11-15T13:53:27;13.50;11.75;5.00
26185;PMS7003;20067;48.764;9.176;2022-11-15T13:55:57;10.25;10.25;5.00
26185;PMS7003;20067;48.764;9.176;2022-11-15T13:58:23;12.00;10.50;4.00
26185;PMS7003;20067;48.764;9.176;2022-11-15T14:00:49;15.50;14.75;7.00
26185;PMS7003;20067;48.764;9.176;2022-11-15T14:03:28;15.00;14.50;5.00
26185;PMS7003;20067;48.764;9.176;2022-11-15T14:08:28;11.50;11.50;6.50
26185;PMS7003;20067;48.764;9.176;2022-11-15T14:11:08;11.25;10.25;4.00
26185;PMS7003;20067;48.764;9.176;2022-11-15T14:13:42;11.75;11.00;5.50
26185;PMS7003;20067;48.764;9.176;2022-11-15T14:16:32;12.00;10.00;4.00
26185;PMS7003;20067;48.764;9.176;2022-11-15T14:19:00;11.00;10.00;5.50
26185;PMS7003;20067;48.764;9.176;2022-11-15T14:21:26;13.75;13.50;7.00
26185;PMS7003;20067;48.764;9.176;2022-11-15T14:23:51;12.75;11.75;7.00
26185;PMS7003;20067;48.764;9.176;2022-11-15T14:28:53;11.50;11.50;4.75
26185;PMS7003;20067;48.764;9.176;2022-11-15T14:31:19;11.75;11.75;7.00
26185;PMS7003;20067;48.764;9.176;2022-11-15T14:33:45;13.00;12.00;5.00
26185;PMS7003;20067;48.764;9.176;2022-11-15T14:36:15;10.25;10.00;5.00
26185;PMS7003;20067;48.764;9.176;2022-11-15T14:38:43;10.50;8.00;5.00
26185;PMS7003;20067;48.764;9.176;2022-11-15T14:41:12;11.75;11.75;7.00
26185;PMS7003;20067;48.764;9.176;2022-11-15T14:43:50;11.75;11.25;6.50
26185;PMS7003;20067;48.764;9.176;2022-11-15T14:46:16;13.75;12.00;7.00
26185;PMS7003;20067;48.764;9.176;2022-11-15T14:48:42;14.50;13.50;7.00
26185;PMS7003;20067;48.764;9.176;2022-11-15T14:51:11;12.50;12.50;8.00
26185;PMS7003;20067;48.764;9.176;2022-11-15T14:53:39;15.25;14.50;8.25
26185;PMS7003;20067;48.764;9.176;2022-11-15T14:56:05;17.00;12.00;8.00
26185;PMS7003;20067;48.764;9.176;2022-11-15T14:58:31;13.00;10.25;5.00
26185;PMS7003;20067;48.764;9.176;2022-11-15T15:00:56;16.00;11.25;7.75
26185;PMS7003;20067;48.764;9.176;2022-11-15T15:03:22;11.00;11.00;6.00
26185;PMS7003;20067;48.764;9.176;2022-11-15T15:05:47;17.00;17.00;9.75
26185;PMS7003;20067;48.764;9.176;2022-11-15T15:08:13;16.25;14.50;9.00
26185;PMS7003;20067;48.764;9.176;2022-11-15T15:10:43;13.75;13.75;6.75
26185;PMS7003;20067;48.764;9.176;2022-11-15T15:13:17;14.75;14.75;5.50
26185;PMS7003;20067;48.764;9.176;2022-11-15T15:15:45;14.75;14.00;7.00
26185;PMS7003;20067;48.764;9.176;2022-11-15T15:18:11;15.25;14.00;7.00
26185;PMS7003;20067;48.764;9.176;2022-11-15T15:20:38;18.75;15.50;7.00
26185;PMS7003;20067;48.764;9.176;2022-11-15T15:23:09;14.25;14.25;5.00
26185;PMS7003;20067;48.764;9.176;2022-11-15T15:25:43;14.75;14.00;5.00
26185;PMS7003;20067;48.764;9.176;2022-11-15T15:28:10;14.25;13.00;5.00
26185;PMS7003;20067;48.764;9.176;2022-11-15T15:30:36;15.75;13.75;5.00
26185;PMS7003;20067;48.764;9.176;2022-11-15T15:33:01;16.50;14.75;5.75
26185;PMS7003;20067;48.764;9.176;2022-11-15T15:35:29;16.00;16.00;7.00
26185;PMS7003;20067;48.764;9.176;2022-11-15T15:37:56;21.25;21.00;8.00
26185;PMS7003;20067;48.764;9.176;2022-11-15T15:40:23;20.50;19.00;8.00
26185;PMS7003;20067;48.764;9.176;2022-11-15T15:42:50;23.00;20.75;10.00
26185;PMS7003;20067;48.764;9.176;2022-11-15T15:45:16;14.75;13.50;6.50
26185;PMS7003;20067;48.764;9.176;2022-11-15T15:47:43;18.00;17.25;9.00
26185;PMS7003;20067;48.764;9.176;2022-11-15T15:52:47;22.75;20.25;8.00
26185;PMS7003;20067;48.764;9.176;2022-11-15T15:55:13;16.50;15.50;5.00
26185;PMS7003;20067;48.764;9.176;2022-11-15T15:57:39;15.00;12.50;5.50
26185;PMS7003;20067;48.764;9.176;2022-11-15T16:00:05;18.00;16.00;8.00
26185;PMS7003;20067;48.764;9.176;2022-11-15T16:02:31;15.75;15.75;7.00
26185;PMS7003;20067;48.764;9.176;2022-11-15T16:04:56;16.75;15.75;8.00
26185;PMS7003;20067;48.764;9.176;2022-11-15T16:07:22;17.25;15.25;8.00
26185;PMS7003;20067;48.764;9.176;2022-11-15T16:09:53;13.00;12.75;7.00
26185;PMS7003;20067;48.764;9.176;2022-11-15T16:12:24;19.25;16.50;8.00
26185;PMS7003;20067;48.764;9.176;2022-11-15T16:14:50;15.25;15.25;7.00
26185;PMS7003;20067;48.764;9.176;2022-11-15T16:17:17;21.00;20.00;10.00
26185;PMS7003;20067;48.764;9.176;2022-11-15T16:19:45;21.50;17.25;9.50
26185;PMS7003;20067;48.764;9.176;2022-11-15T16:22:10;20.25;20.25;10.00
26185;PMS7003;20067;48.764;9.176;2022-11-15T16:24:36;20.00;16.50;7.75
26185;PMS7003;20067;48.764;9.176;2022-11-15T16:27:02;15.25;15.25;7.25
26185;PMS7003;20067;48.764;9.176;2022-11-15T16:29:27;12.25;12.25;6.50
26185;PMS7003;20067;48.764;9.176;2022-11-15T16:31:53;17.50;17.50;10.00
26185;PMS7003;20067;48.764;9.176;2022-11-15T16:34:19;17.00;15.25;10.00
26185;PMS7003;20067;48.764;9.176;2022-11-15T16:36:44;15.25;15.00;7.00
26185;PMS7003;20067;48.764;9.176;2022-11-15T16:39:12;15.00;13.50;7.00
26185;PMS7003;20067;48.764;9.176;2022-11-15T16:41:38;22.00;18.00;9.00
26185;PMS7003;20067;48.764;9.176;2022-11-15T16:44:05;15.00;14.00;7.75
26185;PMS7003;20067;48.764;9.176;2022-11-15T16:46:30;15.00;14.75;8.00